sensor_id;sensor_type;location;lat;lon;timestamp;P1;durP1;ratioP1;P2;durP2;ratioP2
8397;SDS011;4236;54.504;9.588;2023-03-01T00:01:28;142.97;;;134.50;;
8397;SDS011;4236;54.504;9.588;2023-03-01T00:03:58;149.10;;;137.37;;
8397;SDS011;4236;54.504;9.588;2023-03-01T00:06:26;140.33;;;133.23;;
8397;SDS011;4236;54.504;9.588;2023-03-01T00:08:55;176.57;;;158.40;;
8397;SDS011;4236;54.504;9.588;2023-03-01T00:11:24;163.57;;;149.27;;
8397;SDS011;4236;54.504;9.588;2023-03-01T00:13:54;165.20;;;152.70;;
8397;SDS011;4236;54.504;9.588;2023-03-01T00:16:24;170.87;;;158.20;;
8397;SDS011;4236;54.504;9.588;2023-03-01T00:18:54;155.47;;;148.57;;
8397;SDS011;4236;54.504;9.588;2023-03-01T00:21:22;169.27;;;155.43;;
8397;SDS011;4236;54.504;9.588;2023-03-01T00:23:51;159.67;;;150.83;;
8397;SDS011;4236;54.504;9.588;2023-03-01T00:26:19;164.60;;;153.90;;
8397;SDS011;4236;54.504;9.588;2023-03-01T00:28:50;179.27;;;170.60;;
8397;SDS011;4236;54.504;9.588;2023-03-01T00:31:19;183.63;;;172.10;;
8397;SDS011;4236;54.504;9.588;2023-03-01T00:33:48;194.70;;;179.17;;
8397;SDS011;4236;54.504;9.588;2023-03-01T00:36:19;190.03;;;177.03;;
8397;SDS011;4236;54.504;9.588;2023-03-01T00:38:46;207.63;;;189.87;;
8397;SDS011;4236;54.504;9.588;2023-03-01T00:41:15;256.90;;;200.07;;
8397;SDS011;4236;54.504;9.588;2023-03-01T00:43:44;203.47;;;185.10;;
8397;SDS011;4236;54.504;9.588;2023-03-01T00:46:14;201.10;;;191.80;;
8397;SDS011;4236;54.504;9.588;2023-03-01T00:48:43;186.20;;;177.80;;
8397;SDS011;4236;54.504;9.588;2023-03-01T00:51:12;239.60;;;213.93;;
8397;SDS011;4236;54.504;9.588;2023-03-01T00:53:41;212.43;;;197.93;;
8397;SDS011;4236;54.504;9.588;2023-03-01T00:56:10;208.20;;;196.37;;
8397;SDS011;4236;54.504;9.588;2023-03-01T00:58:39;242.70;;;217.80;;
8397;SDS011;4236;54.504;9.588;2023-03-01T01:01:08;234.27;;;216.77;;
8397;SDS011;4236;54.504;9.588;2023-03-01T01:03:46;223.47;;;206.20;;
8397;SDS011;4236;54.504;9.588;2023-03-01T01:06:15;225.97;;;210.87;;
8397;SDS011;4236;54.504;9.588;2023-03-01T01:08:44;210.87;;;199.47;;
8397;SDS011;4236;54.504;9.588;2023-03-01T01:11:12;212.63;;;199.77;;
8397;SDS011;4236;54.504;9.588;2023-03-01T01:13:40;213.17;;;198.10;;
8397;SDS011;4236;54.504;9.588;2023-03-01T01:16:08;217.57;;;204.23;;
8397;SDS011;4236;54.504;9.588;2023-03-01T01:18:36;217.47;;;204.20;;
8397;SDS011;4236;54.504;9.588;2023-03-01T01:21:06;212.10;;;199.40;;
8397;SDS011;4236;54.504;9.588;2023-03-01T01:23:35;212.53;;;195.47;;
8397;SDS011;4236;54.504;9.588;2023-03-01T01:26:04;211.87;;;192.67;;
8397;SDS011;4236;54.504;9.588;2023-03-01T01:28:33;217.43;;;198.23;;
8397;SDS011;4236;54.504;9.588;2023-03-01T01:31:01;219.17;;;200.20;;
8397;SDS011;4236;54.504;9.588;2023-03-01T01:33:29;233.40;;;209.77;;
8397;SDS011;4236;54.504;9.588;2023-03-01T01:35:57;208.17;;;196.67;;
8397;SDS011;4236;54.504;9.588;2023-03-01T01:38:26;212.50;;;191.10;;
8397;SDS011;4236;54.504;9.588;2023-03-01T01:40:53;259.73;;;198.20;;
8397;SDS011;4236;54.504;9.588;2023-03-01T01:43:22;204.47;;;191.40;;
8397;SDS011;4236;54.504;9.588;2023-03-01T01:45:52;192.57;;;180.53;;
8397;SDS011;4236;54.504;9.588;2023-03-01T01:48:24;212.40;;;196.47;;
8397;SDS011;4236;54.504;9.588;2023-03-01T01:51:07;222.70;;;193.80;;
8397;SDS011;4236;54.504;9.588;2023-03-01T01:53:40;191.23;;;179.33;;
8397;SDS011;4236;54.504;9.588;2023-03-01T01:56:10;197.37;;;182.80;;
8397;SDS011;4236;54.504;9.588;2023-03-01T01:58:40;213.73;;;196.43;;
8397;SDS011;4236;54.504;9.588;2023-03-01T02:01:09;240.77;;;207.07;;
8397;SDS011;4236;54.504;9.588;2023-03-01T02:03:38;282.80;;;195.07;;
8397;SDS011;4236;54.504;9.588;2023-03-01T02:06:12;208.97;;;192.40;;
8397;SDS011;4236;54.504;9.588;2023-03-01T02:08:45;207.97;;;191.93;;
8397;SDS011;4236;54.504;9.588;2023-03-01T02:11:15;192.57;;;182.40;;
8397;SDS011;4236;54.504;9.588;2023-03-01T02:13:46;214.23;;;200.00;;
8397;SDS011;4236;54.504;9.588;2023-03-01T02:16:15;217.00;;;203.13;;
8397;SDS011;4236;54.504;9.588;2023-03-01T02:18:44;234.87;;;214.10;;
8397;SDS011;4236;54.504;9.588;2023-03-01T02:21:15;205.03;;;191.60;;
8397;SDS011;4236;54.504;9.588;2023-03-01T02:24:02;211.17;;;198.37;;
8397;SDS011;4236;54.504;9.588;2023-03-01T02:26:47;206.00;;;195.57;;
8397;SDS011;4236;54.504;9.588;2023-03-01T02:29:19;314.73;;;222.60;;
8397;SDS011;4236;54.504;9.588;2023-03-01T02:31:48;220.07;;;204.80;;
8397;SDS011;4236;54.504;9.588;2023-03-01T02:34:19;226.77;;;210.57;;
8397;SDS011;4236;54.504;9.588;2023-03-01T02:36:52;214.50;;;202.93;;
8397;SDS011;4236;54.504;9.588;2023-03-01T02:39:24;216.73;;;199.70;;
8397;SDS011;4236;54.504;9.588;2023-03-01T02:41:54;225.57;;;213.20;;
8397;SDS011;4236;54.504;9.588;2023-03-01T02:44:24;224.77;;;209.80;;
8397;SDS011;4236;54.504;9.588;2023-03-01T02:46:53;194.87;;;186.97;;
8397;SDS011;4236;54.504;9.588;2023-03-01T02:49:25;210.53;;;202.03;;
8397;SDS011;4236;54.504;9.588;2023-03-01T02:54:50;227.90;;;210.47;;
8397;SDS011;4236;54.504;9.588;2023-03-01T02:57:23;213.77;;;198.13;;
8397;SDS011;4236;54.504;9.588;2023-03-01T02:59:55;219.03;;;206.00;;
8397;SDS011;4236;54.504;9.588;2023-03-01T03:02:25;197.67;;;190.27;;
8397;SDS011;4236;54.504;9.588;2023-03-01T03:05:04;200.50;;;186.20;;
8397;SDS011;4236;54.504;9.588;2023-03-01T03:07:34;216.37;;;200.30;;
8397;SDS011;4236;54.504;9.588;2023-03-01T03:10:04;214.57;;;199.30;;
8397;SDS011;4236;54.504;9.588;2023-03-01T03:12:35;204.53;;;193.43;;
8397;SDS011;4236;54.504;9.588;2023-03-01T03:15:04;194.47;;;184.57;;
8397;SDS011;4236;54.504;9.588;2023-03-01T03:17:35;197.30;;;188.50;;
8397;SDS011;4236;54.504;9.588;2023-03-01T03:20:04;200.70;;;190.80;;
8397;SDS011;4236;54.504;9.588;2023-03-01T03:22:37;215.43;;;200.83;;
8397;SDS011;4236;54.504;9.588;2023-03-01T03:25:05;217.80;;;203.07;;
8397;SDS011;4236;54.504;9.588;2023-03-01T03:27:36;216.73;;;199.70;;
8397;SDS011;4236;54.504;9.588;2023-03-01T03:30:07;221.43;;;202.13;;
8397;SDS011;4236;54.504;9.588;2023-03-01T03:32:38;208.43;;;196.10;;
8397;SDS011;4236;54.504;9.588;2023-03-01T03:35:06;217.00;;;199.23;;
8397;SDS011;4236;54.504;9.588;2023-03-01T03:37:36;219.53;;;200.20;;
8397;SDS011;4236;54.504;9.588;2023-03-01T03:40:21;220.50;;;204.33;;
8397;SDS011;4236;54.504;9.588;2023-03-01T03:42:49;216.27;;;201.77;;
8397;SDS011;4236;54.504;9.588;2023-03-01T03:45:18;223.07;;;208.37;;
8397;SDS011;4236;54.504;9.588;2023-03-01T03:47:46;212.90;;;201.23;;
8397;SDS011;4236;54.504;9.588;2023-03-01T03:50:14;239.10;;;213.43;;
8397;SDS011;4236;54.504;9.588;2023-03-01T03:52:43;210.80;;;198.03;;
8397;SDS011;4236;54.504;9.588;2023-03-01T03:55:11;215.47;;;203.63;;
8397;SDS011;4236;54.504;9.588;2023-03-01T03:57:40;214.90;;;200.50;;
8397;SDS011;4236;54.504;9.588;2023-03-01T04:00:09;219.90;;;202.33;;
8397;SDS011;4236;54.504;9.588;2023-03-01T04:02:40;221.97;;;204.47;;
8397;SDS011;4236;54.504;9.588;2023-03-01T04:05:09;229.53;;;203.23;;
8397;SDS011;4236;54.504;9.588;2023-03-01T04:07:38;209.40;;;194.10;;
8397;SDS011;4236;54.504;9.588;2023-03-01T04:10:08;204.27;;;190.07;;
8397;SDS011;4236;54.504;9.588;2023-03-01T04:12:40;244.30;;;205.80;;
8397;SDS011;4236;54.504;9.588;2023-03-01T04:15:10;298.70;;;204.10;;
8397;SDS011;4236;54.504;9.588;2023-03-01T04:17:44;203.10;;;189.40;;
8397;SDS011;4236;54.504;9.588;2023-03-01T04:20:13;203.43;;;188.60;;
8397;SDS011;4236;54.504;9.588;2023-03-01T04:22:43;193.87;;;176.77;;
8397;SDS011;4236;54.504;9.588;2023-03-01T04:25:13;248.37;;;184.00;;
8397;SDS011;4236;54.504;9.588;2023-03-01T04:27:41;194.07;;;175.93;;
8397;SDS011;4236;54.504;9.588;2023-03-01T04:30:09;181.67;;;171.53;;
8397;SDS011;4236;54.504;9.588;2023-03-01T04:32:37;185.80;;;173.87;;
8397;SDS011;4236;54.504;9.588;2023-03-01T04:35:07;179.53;;;168.30;;
8397;SDS011;4236;54.504;9.588;2023-03-01T04:37:35;186.37;;;174.40;;
8397;SDS011;4236;54.504;9.588;2023-03-01T04:40:03;176.37;;;167.53;;
8397;SDS011;4236;54.504;9.588;2023-03-01T04:42:39;176.10;;;167.07;;
8397;SDS011;4236;54.504;9.588;2023-03-01T04:45:07;169.23;;;161.63;;
8397;SDS011;4236;54.504;9.588;2023-03-01T04:47:39;181.70;;;170.33;;
8397;SDS011;4236;54.504;9.588;2023-03-01T04:50:11;176.10;;;166.50;;
8397;SDS011;4236;54.504;9.588;2023-03-01T04:52:40;180.03;;;163.73;;
8397;SDS011;4236;54.504;9.588;2023-03-01T04:55:09;167.10;;;160.23;;
8397;SDS011;4236;54.504;9.588;2023-03-01T04:57:37;176.67;;;161.90;;
8397;SDS011;4236;54.504;9.588;2023-03-01T05:00:06;171.10;;;160.83;;
8397;SDS011;4236;54.504;9.588;2023-03-01T05:02:49;172.00;;;163.60;;
8397;SDS011;4236;54.504;9.588;2023-03-01T05:05:22;193.40;;;165.93;;
8397;SDS011;4236;54.504;9.588;2023-03-01T05:07:53;183.27;;;166.50;;
8397;SDS011;4236;54.504;9.588;2023-03-01T05:10:22;163.40;;;153.83;;
8397;SDS011;4236;54.504;9.588;2023-03-01T05:12:50;159.67;;;149.90;;
8397;SDS011;4236;54.504;9.588;2023-03-01T05:15:19;207.30;;;164.57;;
8397;SDS011;4236;54.504;9.588;2023-03-01T05:17:48;168.40;;;154.07;;
8397;SDS011;4236;54.504;9.588;2023-03-01T05:20:15;158.80;;;146.80;;
8397;SDS011;4236;54.504;9.588;2023-03-01T05:22:44;154.50;;;142.20;;
8397;SDS011;4236;54.504;9.588;2023-03-01T05:25:12;202.03;;;155.57;;
8397;SDS011;4236;54.504;9.588;2023-03-01T05:27:40;153.90;;;144.33;;
8397;SDS011;4236;54.504;9.588;2023-03-01T05:30:08;160.37;;;148.87;;
8397;SDS011;4236;54.504;9.588;2023-03-01T05:32:41;159.03;;;146.07;;
8397;SDS011;4236;54.504;9.588;2023-03-01T05:35:11;159.27;;;146.10;;
8397;SDS011;4236;54.504;9.588;2023-03-01T05:37:40;157.97;;;144.60;;
8397;SDS011;4236;54.504;9.588;2023-03-01T05:40:11;179.53;;;149.27;;
8397;SDS011;4236;54.504;9.588;2023-03-01T05:42:43;157.87;;;142.83;;
8397;SDS011;4236;54.504;9.588;2023-03-01T05:45:11;136.87;;;129.30;;
8397;SDS011;4236;54.504;9.588;2023-03-01T05:47:40;145.13;;;135.53;;
8397;SDS011;4236;54.504;9.588;2023-03-01T05:50:10;141.77;;;133.70;;
8397;SDS011;4236;54.504;9.588;2023-03-01T05:52:39;140.80;;;129.17;;
8397;SDS011;4236;54.504;9.588;2023-03-01T05:55:07;154.63;;;141.33;;
8397;SDS011;4236;54.504;9.588;2023-03-01T05:57:37;142.20;;;132.60;;
8397;SDS011;4236;54.504;9.588;2023-03-01T06:00:05;139.17;;;128.37;;
8397;SDS011;4236;54.504;9.588;2023-03-01T06:02:34;137.57;;;127.73;;
8397;SDS011;4236;54.504;9.588;2023-03-01T06:05:02;123.60;;;116.10;;
8397;SDS011;4236;54.504;9.588;2023-03-01T06:07:30;177.47;;;134.83;;
8397;SDS011;4236;54.504;9.588;2023-03-01T06:09:58;127.47;;;118.00;;
8397;SDS011;4236;54.504;9.588;2023-03-01T06:12:27;128.07;;;117.03;;
8397;SDS011;4236;54.504;9.588;2023-03-01T06:14:59;127.20;;;119.93;;
8397;SDS011;4236;54.504;9.588;2023-03-01T06:17:28;152.10;;;121.70;;
8397;SDS011;4236;54.504;9.588;2023-03-01T06:19:56;121.77;;;114.93;;
8397;SDS011;4236;54.504;9.588;2023-03-01T06:22:24;118.93;;;111.63;;
8397;SDS011;4236;54.504;9.588;2023-03-01T06:24:51;121.73;;;110.13;;
8397;SDS011;4236;54.504;9.588;2023-03-01T06:27:19;124.53;;;111.93;;
8397;SDS011;4236;54.504;9.588;2023-03-01T06:29:47;105.93;;;99.00;;
8397;SDS011;4236;54.504;9.588;2023-03-01T06:32:16;105.60;;;98.13;;
8397;SDS011;4236;54.504;9.588;2023-03-01T06:34:44;108.13;;;99.73;;
8397;SDS011;4236;54.504;9.588;2023-03-01T06:37:12;98.30;;;91.90;;
8397;SDS011;4236;54.504;9.588;2023-03-01T06:39:40;97.37;;;91.80;;
8397;SDS011;4236;54.504;9.588;2023-03-01T06:42:08;101.13;;;95.17;;
8397;SDS011;4236;54.504;9.588;2023-03-01T06:44:37;93.83;;;87.63;;
8397;SDS011;4236;54.504;9.588;2023-03-01T06:47:05;85.90;;;79.57;;
8397;SDS011;4236;54.504;9.588;2023-03-01T06:49:34;92.00;;;84.30;;
8397;SDS011;4236;54.504;9.588;2023-03-01T06:52:01;85.23;;;80.67;;
8397;SDS011;4236;54.504;9.588;2023-03-01T06:54:29;84.57;;;79.97;;
8397;SDS011;4236;54.504;9.588;2023-03-01T06:56:57;87.80;;;83.60;;
8397;SDS011;4236;54.504;9.588;2023-03-01T06:59:25;80.40;;;76.40;;
8397;SDS011;4236;54.504;9.588;2023-03-01T07:01:52;94.43;;;84.87;;
8397;SDS011;4236;54.504;9.588;2023-03-01T07:04:20;152.63;;;90.40;;
8397;SDS011;4236;54.504;9.588;2023-03-01T07:06:49;97.13;;;89.03;;
8397;SDS011;4236;54.504;9.588;2023-03-01T07:09:21;91.20;;;86.47;;
8397;SDS011;4236;54.504;9.588;2023-03-01T07:11:49;93.53;;;88.40;;
8397;SDS011;4236;54.504;9.588;2023-03-01T07:14:17;87.80;;;81.13;;
8397;SDS011;4236;54.504;9.588;2023-03-01T07:16:45;88.97;;;83.30;;
8397;SDS011;4236;54.504;9.588;2023-03-01T07:19:13;83.90;;;77.93;;
8397;SDS011;4236;54.504;9.588;2023-03-01T07:21:41;78.37;;;73.07;;
8397;SDS011;4236;54.504;9.588;2023-03-01T07:24:10;74.37;;;68.70;;
8397;SDS011;4236;54.504;9.588;2023-03-01T07:26:38;78.07;;;72.37;;
8397;SDS011;4236;54.504;9.588;2023-03-01T07:29:07;85.70;;;79.00;;
8397;SDS011;4236;54.504;9.588;2023-03-01T07:31:35;76.33;;;71.60;;
8397;SDS011;4236;54.504;9.588;2023-03-01T07:34:03;74.97;;;69.73;;
8397;SDS011;4236;54.504;9.588;2023-03-01T07:36:31;69.20;;;64.03;;
8397;SDS011;4236;54.504;9.588;2023-03-01T07:38:59;64.13;;;60.23;;
8397;SDS011;4236;54.504;9.588;2023-03-01T07:41:29;61.40;;;57.63;;
8397;SDS011;4236;54.504;9.588;2023-03-01T07:43:57;58.77;;;55.93;;
8397;SDS011;4236;54.504;9.588;2023-03-01T07:46:25;53.77;;;51.20;;
8397;SDS011;4236;54.504;9.588;2023-03-01T07:48:53;54.13;;;51.17;;
8397;SDS011;4236;54.504;9.588;2023-03-01T07:51:21;52.73;;;50.33;;
8397;SDS011;4236;54.504;9.588;2023-03-01T07:53:48;46.67;;;44.43;;
8397;SDS011;4236;54.504;9.588;2023-03-01T07:56:16;45.93;;;43.20;;
8397;SDS011;4236;54.504;9.588;2023-03-01T07:58:46;45.50;;;42.20;;
8397;SDS011;4236;54.504;9.588;2023-03-01T08:01:16;38.57;;;36.87;;
8397;SDS011;4236;54.504;9.588;2023-03-01T08:03:45;40.10;;;37.03;;
8397;SDS011;4236;54.504;9.588;2023-03-01T08:06:14;37.73;;;35.63;;
8397;SDS011;4236;54.504;9.588;2023-03-01T08:08:43;40.20;;;36.00;;
8397;SDS011;4236;54.504;9.588;2023-03-01T08:11:12;35.73;;;33.43;;
8397;SDS011;4236;54.504;9.588;2023-03-01T08:13:41;34.00;;;32.37;;
8397;SDS011;4236;54.504;9.588;2023-03-01T08:16:12;35.80;;;34.00;;
8397;SDS011;4236;54.504;9.588;2023-03-01T08:18:41;34.03;;;32.10;;
8397;SDS011;4236;54.504;9.588;2023-03-01T08:21:10;31.17;;;29.43;;
8397;SDS011;4236;54.504;9.588;2023-03-01T08:23:39;29.27;;;27.73;;
8397;SDS011;4236;54.504;9.588;2023-03-01T08:26:07;31.23;;;29.40;;
8397;SDS011;4236;54.504;9.588;2023-03-01T08:28:38;28.73;;;27.43;;
8397;SDS011;4236;54.504;9.588;2023-03-01T08:31:14;30.60;;;29.00;;
8397;SDS011;4236;54.504;9.588;2023-03-01T08:33:43;29.27;;;27.67;;
8397;SDS011;4236;54.504;9.588;2023-03-01T08:36:16;29.90;;;28.00;;
8397;SDS011;4236;54.504;9.588;2023-03-01T08:38:45;27.03;;;25.80;;
8397;SDS011;4236;54.504;9.588;2023-03-01T08:41:13;28.70;;;27.30;;
8397;SDS011;4236;54.504;9.588;2023-03-01T08:43:40;28.20;;;26.60;;
8397;SDS011;4236;54.504;9.588;2023-03-01T08:46:08;29.30;;;27.80;;
8397;SDS011;4236;54.504;9.588;2023-03-01T08:48:37;28.30;;;27.00;;
8397;SDS011;4236;54.504;9.588;2023-03-01T08:51:07;27.43;;;26.30;;
8397;SDS011;4236;54.504;9.588;2023-03-01T08:53:35;27.63;;;26.43;;
8397;SDS011;4236;54.504;9.588;2023-03-01T08:56:03;26.60;;;25.30;;
8397;SDS011;4236;54.504;9.588;2023-03-01T08:58:31;26.73;;;25.53;;
8397;SDS011;4236;54.504;9.588;2023-03-01T09:00:59;27.33;;;25.93;;
8397;SDS011;4236;54.504;9.588;2023-03-01T09:03:27;27.27;;;25.93;;
8397;SDS011;4236;54.504;9.588;2023-03-01T09:06:00;26.33;;;25.13;;
8397;SDS011;4236;54.504;9.588;2023-03-01T09:08:30;26.03;;;24.73;;
8397;SDS011;4236;54.504;9.588;2023-03-01T09:11:01;25.77;;;24.67;;
8397;SDS011;4236;54.504;9.588;2023-03-01T09:13:29;26.60;;;25.30;;
8397;SDS011;4236;54.504;9.588;2023-03-01T09:15:58;27.10;;;25.90;;
8397;SDS011;4236;54.504;9.588;2023-03-01T09:18:26;25.20;;;24.20;;
8397;SDS011;4236;54.504;9.588;2023-03-01T09:21:01;27.13;;;25.73;;
8397;SDS011;4236;54.504;9.588;2023-03-01T09:23:33;26.77;;;25.60;;
8397;SDS011;4236;54.504;9.588;2023-03-01T09:26:02;26.90;;;25.60;;
8397;SDS011;4236;54.504;9.588;2023-03-01T09:28:30;27.17;;;25.87;;
8397;SDS011;4236;54.504;9.588;2023-03-01T09:30:58;26.90;;;25.70;;
8397;SDS011;4236;54.504;9.588;2023-03-01T09:33:26;26.60;;;25.30;;
8397;SDS011;4236;54.504;9.588;2023-03-01T09:35:58;26.83;;;25.53;;
8397;SDS011;4236;54.504;9.588;2023-03-01T09:38:27;26.33;;;25.03;;
8397;SDS011;4236;54.504;9.588;2023-03-01T09:40:55;26.60;;;25.20;;
8397;SDS011;4236;54.504;9.588;2023-03-01T09:43:23;26.20;;;25.00;;
8397;SDS011;4236;54.504;9.588;2023-03-01T09:45:58;27.60;;;26.30;;
8397;SDS011;4236;54.504;9.588;2023-03-01T09:48:32;27.53;;;26.27;;
8397;SDS011;4236;54.504;9.588;2023-03-01T09:51:05;28.40;;;27.00;;
8397;SDS011;4236;54.504;9.588;2023-03-01T09:53:41;28.37;;;27.07;;
8397;SDS011;4236;54.504;9.588;2023-03-01T09:56:11;26.70;;;25.50;;
8397;SDS011;4236;54.504;9.588;2023-03-01T09:58:48;27.37;;;26.07;;
8397;SDS011;4236;54.504;9.588;2023-03-01T10:01:27;28.67;;;27.17;;
8397;SDS011;4236;54.504;9.588;2023-03-01T10:04:04;26.70;;;25.30;;
8397;SDS011;4236;54.504;9.588;2023-03-01T10:06:40;26.47;;;25.07;;
8397;SDS011;4236;54.504;9.588;2023-03-01T10:09:14;27.53;;;25.60;;
8397;SDS011;4236;54.504;9.588;2023-03-01T10:11:45;26.23;;;24.93;;
8397;SDS011;4236;54.504;9.588;2023-03-01T10:14:27;26.23;;;24.80;;
8397;SDS011;4236;54.504;9.588;2023-03-01T10:17:00;27.20;;;25.70;;
8397;SDS011;4236;54.504;9.588;2023-03-01T10:19:31;26.07;;;24.77;;
8397;SDS011;4236;54.504;9.588;2023-03-01T10:22:02;27.77;;;26.23;;
8397;SDS011;4236;54.504;9.588;2023-03-01T10:24:37;28.50;;;26.97;;
8397;SDS011;4236;54.504;9.588;2023-03-01T10:27:06;28.63;;;27.03;;
8397;SDS011;4236;54.504;9.588;2023-03-01T10:29:39;27.73;;;26.33;;
8397;SDS011;4236;54.504;9.588;2023-03-01T10:32:13;27.80;;;26.30;;
8397;SDS011;4236;54.504;9.588;2023-03-01T10:34:41;27.50;;;26.00;;
8397;SDS011;4236;54.504;9.588;2023-03-01T10:37:10;27.43;;;25.83;;
8397;SDS011;4236;54.504;9.588;2023-03-01T10:39:55;25.90;;;24.70;;
8397;SDS011;4236;54.504;9.588;2023-03-01T10:42:28;24.77;;;23.63;;
8397;SDS011;4236;54.504;9.588;2023-03-01T10:44:58;25.77;;;24.47;;
8397;SDS011;4236;54.504;9.588;2023-03-01T10:47:41;25.77;;;24.57;;
8397;SDS011;4236;54.504;9.588;2023-03-01T10:50:17;26.57;;;24.93;;
8397;SDS011;4236;54.504;9.588;2023-03-01T10:52:55;25.47;;;24.17;;
8397;SDS011;4236;54.504;9.588;2023-03-01T10:55:27;27.37;;;25.77;;
8397;SDS011;4236;54.504;9.588;2023-03-01T10:58:08;27.07;;;25.87;;
8397;SDS011;4236;54.504;9.588;2023-03-01T11:00:46;26.77;;;25.47;;
8397;SDS011;4236;54.504;9.588;2023-03-01T11:03:16;24.97;;;23.87;;
8397;SDS011;4236;54.504;9.588;2023-03-01T11:05:55;24.73;;;23.50;;
8397;SDS011;4236;54.504;9.588;2023-03-01T11:08:29;25.20;;;24.10;;
8397;SDS011;4236;54.504;9.588;2023-03-01T11:11:05;25.40;;;24.30;;
8397;SDS011;4236;54.504;9.588;2023-03-01T11:13:46;25.30;;;24.07;;
8397;SDS011;4236;54.504;9.588;2023-03-01T11:16:22;25.80;;;24.60;;
8397;SDS011;4236;54.504;9.588;2023-03-01T11:18:56;28.87;;;27.27;;
8397;SDS011;4236;54.504;9.588;2023-03-01T11:21:25;27.23;;;25.83;;
8397;SDS011;4236;54.504;9.588;2023-03-01T11:23:56;25.20;;;24.20;;
8397;SDS011;4236;54.504;9.588;2023-03-01T11:26:28;25.67;;;24.53;;
8397;SDS011;4236;54.504;9.588;2023-03-01T11:29:04;26.10;;;24.80;;
8397;SDS011;4236;54.504;9.588;2023-03-01T11:31:34;27.00;;;25.80;;
8397;SDS011;4236;54.504;9.588;2023-03-01T11:34:10;26.13;;;24.93;;
8397;SDS011;4236;54.504;9.588;2023-03-01T11:36:41;26.17;;;25.07;;
8397;SDS011;4236;54.504;9.588;2023-03-01T11:39:17;26.00;;;24.70;;
8397;SDS011;4236;54.504;9.588;2023-03-01T11:42:00;25.83;;;24.43;;
8397;SDS011;4236;54.504;9.588;2023-03-01T11:44:44;24.63;;;23.33;;
8397;SDS011;4236;54.504;9.588;2023-03-01T11:47:18;23.83;;;22.63;;
8397;SDS011;4236;54.504;9.588;2023-03-01T11:50:04;25.03;;;23.83;;
8397;SDS011;4236;54.504;9.588;2023-03-01T11:52:44;25.30;;;23.90;;
8397;SDS011;4236;54.504;9.588;2023-03-01T11:55:25;25.13;;;24.03;;
8397;SDS011;4236;54.504;9.588;2023-03-01T11:58:08;27.27;;;25.97;;
8397;SDS011;4236;54.504;9.588;2023-03-01T12:01:08;25.77;;;24.53;;
8397;SDS011;4236;54.504;9.588;2023-03-01T12:03:52;27.70;;;26.27;;
8397;SDS011;4236;54.504;9.588;2023-03-01T12:06:52;26.70;;;25.20;;
8397;SDS011;4236;54.504;9.588;2023-03-01T12:09:31;28.23;;;26.60;;
8397;SDS011;4236;54.504;9.588;2023-03-01T12:18:22;27.70;;;26.20;;
8397;SDS011;4236;54.504;9.588;2023-03-01T12:21:08;27.77;;;26.13;;
8397;SDS011;4236;54.504;9.588;2023-03-01T12:26:38;33.07;;;30.87;;
8397;SDS011;4236;54.504;9.588;2023-03-01T12:29:24;31.60;;;29.80;;
8397;SDS011;4236;54.504;9.588;2023-03-01T12:32:00;32.50;;;30.50;;
8397;SDS011;4236;54.504;9.588;2023-03-01T12:34:46;35.33;;;33.07;;
8397;SDS011;4236;54.504;9.588;2023-03-01T12:37:29;35.70;;;33.37;;
8397;SDS011;4236;54.504;9.588;2023-03-01T12:40:13;35.90;;;33.20;;
8397;SDS011;4236;54.504;9.588;2023-03-01T12:43:06;36.00;;;33.57;;
8397;SDS011;4236;54.504;9.588;2023-03-01T12:45:49;34.03;;;31.73;;
8397;SDS011;4236;54.504;9.588;2023-03-01T12:48:38;32.80;;;30.70;;
8397;SDS011;4236;54.504;9.588;2023-03-01T12:51:10;32.83;;;30.63;;
8397;SDS011;4236;54.504;9.588;2023-03-01T12:53:42;33.73;;;31.43;;
8397;SDS011;4236;54.504;9.588;2023-03-01T12:56:15;31.33;;;29.13;;
8397;SDS011;4236;54.504;9.588;2023-03-01T12:58:47;31.33;;;29.50;;
8397;SDS011;4236;54.504;9.588;2023-03-01T13:01:26;32.43;;;30.40;;
8397;SDS011;4236;54.504;9.588;2023-03-01T13:04:16;31.97;;;29.93;;
8397;SDS011;4236;54.504;9.588;2023-03-01T13:06:57;35.13;;;32.57;;
8397;SDS011;4236;54.504;9.588;2023-03-01T13:09:34;35.77;;;33.37;;
8397;SDS011;4236;54.504;9.588;2023-03-01T13:17:55;33.10;;;30.80;;
8397;SDS011;4236;54.504;9.588;2023-03-01T13:20:27;33.60;;;31.37;;
8397;SDS011;4236;54.504;9.588;2023-03-01T13:23:03;35.00;;;32.70;;
8397;SDS011;4236;54.504;9.588;2023-03-01T13:25:33;36.50;;;33.80;;
8397;SDS011;4236;54.504;9.588;2023-03-01T13:31:07;31.30;;;29.60;;
8397;SDS011;4236;54.504;9.588;2023-03-01T13:33:40;30.43;;;28.73;;
8397;SDS011;4236;54.504;9.588;2023-03-01T13:39:28;30.83;;;29.00;;
8397;SDS011;4236;54.504;9.588;2023-03-01T13:41:59;30.47;;;28.77;;
8397;SDS011;4236;54.504;9.588;2023-03-01T13:44:29;29.47;;;27.70;;
8397;SDS011;4236;54.504;9.588;2023-03-01T13:47:01;30.50;;;28.80;;
8397;SDS011;4236;54.504;9.588;2023-03-01T13:49:36;29.70;;;28.10;;
8397;SDS011;4236;54.504;9.588;2023-03-01T13:52:26;27.90;;;26.30;;
8397;SDS011;4236;54.504;9.588;2023-03-01T13:55:03;29.27;;;27.67;;
8397;SDS011;4236;54.504;9.588;2023-03-01T13:57:34;29.50;;;27.70;;
8397;SDS011;4236;54.504;9.588;2023-03-01T14:00:05;29.00;;;27.30;;
8397;SDS011;4236;54.504;9.588;2023-03-01T14:02:34;28.07;;;26.60;;
8397;SDS011;4236;54.504;9.588;2023-03-01T14:05:03;31.20;;;29.30;;
8397;SDS011;4236;54.504;9.588;2023-03-01T14:07:32;30.00;;;28.10;;
8397;SDS011;4236;54.504;9.588;2023-03-01T14:10:03;31.27;;;29.50;;
8397;SDS011;4236;54.504;9.588;2023-03-01T14:12:37;32.60;;;30.60;;
8397;SDS011;4236;54.504;9.588;2023-03-01T14:15:15;32.17;;;30.20;;
8397;SDS011;4236;54.504;9.588;2023-03-01T14:17:49;32.23;;;30.17;;
8397;SDS011;4236;54.504;9.588;2023-03-01T14:20:23;32.07;;;29.93;;
8397;SDS011;4236;54.504;9.588;2023-03-01T14:22:54;34.87;;;32.47;;
8397;SDS011;4236;54.504;9.588;2023-03-01T14:25:28;35.97;;;33.37;;
8397;SDS011;4236;54.504;9.588;2023-03-01T14:27:59;35.27;;;32.60;;
8397;SDS011;4236;54.504;9.588;2023-03-01T14:30:32;39.83;;;36.57;;
8397;SDS011;4236;54.504;9.588;2023-03-01T14:33:04;39.83;;;35.97;;
8397;SDS011;4236;54.504;9.588;2023-03-01T14:35:35;40.70;;;37.40;;
8397;SDS011;4236;54.504;9.588;2023-03-01T14:38:05;42.07;;;38.37;;
8397;SDS011;4236;54.504;9.588;2023-03-01T14:40:33;43.13;;;39.30;;
8397;SDS011;4236;54.504;9.588;2023-03-01T14:43:07;42.63;;;38.70;;
8397;SDS011;4236;54.504;9.588;2023-03-01T14:45:37;44.33;;;40.40;;
8397;SDS011;4236;54.504;9.588;2023-03-01T14:48:06;44.00;;;39.60;;
8397;SDS011;4236;54.504;9.588;2023-03-01T14:50:35;44.07;;;39.93;;
8397;SDS011;4236;54.504;9.588;2023-03-01T14:53:14;43.20;;;39.30;;
8397;SDS011;4236;54.504;9.588;2023-03-01T14:55:46;43.33;;;39.17;;
8397;SDS011;4236;54.504;9.588;2023-03-01T14:58:18;44.30;;;40.20;;
8397;SDS011;4236;54.504;9.588;2023-03-01T15:00:48;45.33;;;40.93;;
8397;SDS011;4236;54.504;9.588;2023-03-01T15:03:22;42.77;;;38.97;;
8397;SDS011;4236;54.504;9.588;2023-03-01T15:05:53;41.27;;;37.73;;
8397;SDS011;4236;54.504;9.588;2023-03-01T15:08:23;40.43;;;36.90;;
8397;SDS011;4236;54.504;9.588;2023-03-01T15:10:56;39.47;;;36.40;;
8397;SDS011;4236;54.504;9.588;2023-03-01T15:13:28;42.67;;;38.90;;
8397;SDS011;4236;54.504;9.588;2023-03-01T15:16:02;40.67;;;37.30;;
8397;SDS011;4236;54.504;9.588;2023-03-01T15:18:36;41.33;;;38.00;;
8397;SDS011;4236;54.504;9.588;2023-03-01T15:21:14;37.87;;;35.07;;
8397;SDS011;4236;54.504;9.588;2023-03-01T15:23:49;39.50;;;36.50;;
8397;SDS011;4236;54.504;9.588;2023-03-01T15:26:22;40.00;;;37.10;;